sensor_id;sensor_type;location;lat;lon;timestamp;pressure;altitude;pressure_sealevel;temperature
65765;BMP180;52915;53.718;19.946;2023-04-24T00:00:05;99486.60;;;14.20
65765;BMP180;52915;53.718;19.946;2023-04-24T00:05:29;99483.40;;;14.20
65765;BMP180;52915;53.718;19.946;2023-04-24T00:10:32;99474.20;;;14.20
65765;BMP180;52915;53.718;19.946;2023-04-24T00:15:36;99467.00;;;14.30
65765;BMP180;52915;53.718;19.946;2023-04-24T00:20:40;99461.80;;;14.30
65765;BMP180;52915;53.718;19.946;2023-04-24T00:25:43;99458.80;;;14.30
65765;BMP180;52915;53.718;19.946;2023-04-24T00:30:47;99453.20;;;14.30
65765;BMP180;52915;53.718;19.946;2023-04-24T00:35:51;99449.20;;;14.30
65765;BMP180;52915;53.718;19.946;2023-04-24T00:40:54;99443.60;;;14.22
65765;BMP180;52915;53.718;19.946;2023-04-24T00:45:58;99448.60;;;14.20
65765;BMP180;52915;53.718;19.946;2023-04-24T00:51:03;99446.80;;;14.14
65765;BMP180;52915;53.718;19.946;2023-04-24T00:56:10;99445.40;;;14.10
65765;BMP180;52915;53.718;19.946;2023-04-24T01:01:14;99450.20;;;14.10
65765;BMP180;52915;53.718;19.946;2023-04-24T01:06:20;99444.80;;;14.08
65765;BMP180;52915;53.718;19.946;2023-04-24T01:11:25;99443.80;;;13.98
65765;BMP180;52915;53.718;19.946;2023-04-24T01:16:29;99443.80;;;13.90
65765;BMP180;52915;53.718;19.946;2023-04-24T01:21:37;99445.00;;;13.90
65765;BMP180;52915;53.718;19.946;2023-04-24T01:34:03;99447.20;;;13.90
65765;BMP180;52915;53.718;19.946;2023-04-24T01:39:06;99441.20;;;13.90
65765;BMP180;52915;53.718;19.946;2023-04-24T01:44:10;99436.80;;;13.90
65765;BMP180;52915;53.718;19.946;2023-04-24T01:49:33;99443.60;;;13.88
65765;BMP180;52915;53.718;19.946;2023-04-24T01:54:37;99446.00;;;13.86
65765;BMP180;52915;53.718;19.946;2023-04-24T01:59:53;99445.00;;;13.80
65765;BMP180;52915;53.718;19.946;2023-04-24T02:04:57;99446.20;;;13.74
65765;BMP180;52915;53.718;19.946;2023-04-24T02:10:01;99441.80;;;13.70
65765;BMP180;52915;53.718;19.946;2023-04-24T02:15:05;99433.80;;;13.60
65765;BMP180;52915;53.718;19.946;2023-04-24T02:20:10;99431.20;;;13.60
65765;BMP180;52915;53.718;19.946;2023-04-24T02:26:05;99423.80;;;13.60
65765;BMP180;52915;53.718;19.946;2023-04-24T02:31:08;99422.80;;;13.60
65765;BMP180;52915;53.718;19.946;2023-04-24T02:36:12;99411.60;;;13.60
65765;BMP180;52915;53.718;19.946;2023-04-24T02:41:16;99404.60;;;13.60
65765;BMP180;52915;53.718;19.946;2023-04-24T02:46:20;99403.60;;;13.60
65765;BMP180;52915;53.718;19.946;2023-04-24T02:51:23;99400.20;;;13.60
65765;BMP180;52915;53.718;19.946;2023-04-24T02:56:27;99399.80;;;13.52
65765;BMP180;52915;53.718;19.946;2023-04-24T03:02:02;99391.00;;;13.50
65765;BMP180;52915;53.718;19.946;2023-04-24T03:07:06;99391.40;;;13.50
65765;BMP180;52915;53.718;19.946;2023-04-24T03:12:10;99387.60;;;13.40
65765;BMP180;52915;53.718;19.946;2023-04-24T03:17:13;99387.00;;;13.40
65765;BMP180;52915;53.718;19.946;2023-04-24T03:22:17;99386.80;;;13.42
65765;BMP180;52915;53.718;19.946;2023-04-24T03:27:46;99386.60;;;13.50
65765;BMP180;52915;53.718;19.946;2023-04-24T03:32:49;99384.40;;;13.50
65765;BMP180;52915;53.718;19.946;2023-04-24T03:37:53;99386.00;;;13.50
65765;BMP180;52915;53.718;19.946;2023-04-24T03:42:57;99385.80;;;13.50
65765;BMP180;52915;53.718;19.946;2023-04-24T03:48:01;99382.40;;;13.54
65765;BMP180;52915;53.718;19.946;2023-04-24T03:53:04;99380.20;;;13.60
65765;BMP180;52915;53.718;19.946;2023-04-24T03:58:08;99376.20;;;13.60
65765;BMP180;52915;53.718;19.946;2023-04-24T04:17:42;99386.80;;;13.60
65765;BMP180;52915;53.718;19.946;2023-04-24T04:23:36;99383.20;;;13.60
65765;BMP180;52915;53.718;19.946;2023-04-24T04:28:39;99383.20;;;13.68
65765;BMP180;52915;53.718;19.946;2023-04-24T04:33:44;99387.60;;;13.68
65765;BMP180;52915;53.718;19.946;2023-04-24T04:38:48;99382.60;;;13.70
65765;BMP180;52915;53.718;19.946;2023-04-24T04:43:53;99379.00;;;13.74
65765;BMP180;52915;53.718;19.946;2023-04-24T04:48:57;99374.60;;;13.90
65765;BMP180;52915;53.718;19.946;2023-04-24T04:54:01;99376.80;;;13.98
65765;BMP180;52915;53.718;19.946;2023-04-24T04:59:06;99380.00;;;14.10
65765;BMP180;52915;53.718;19.946;2023-04-24T05:18:29;99388.80;;;14.38
65765;BMP180;52915;53.718;19.946;2023-04-24T05:23:59;99386.00;;;14.40
65765;BMP180;52915;53.718;19.946;2023-04-24T05:35:53;99400.40;;;14.60
65765;BMP180;52915;53.718;19.946;2023-04-24T05:41:22;99402.40;;;14.80
65765;BMP180;52915;53.718;19.946;2023-04-24T05:47:13;99406.40;;;14.90
65765;BMP180;52915;53.718;19.946;2023-04-24T05:52:43;99408.40;;;15.04
65765;BMP180;52915;53.718;19.946;2023-04-24T06:04:37;99412.40;;;15.20
65765;BMP180;52915;53.718;19.946;2023-04-24T06:10:06;99407.40;;;15.22
65765;BMP180;52915;53.718;19.946;2023-04-24T06:28:19;99406.40;;;15.50
65765;BMP180;52915;53.718;19.946;2023-04-24T06:33:23;99416.20;;;15.60
65765;BMP180;52915;53.718;19.946;2023-04-24T06:38:29;99415.60;;;15.60
65765;BMP180;52915;53.718;19.946;2023-04-24T06:43:33;99413.40;;;15.70
65765;BMP180;52915;53.718;19.946;2023-04-24T06:55:43;99409.40;;;15.60
65765;BMP180;52915;53.718;19.946;2023-04-24T07:21:22;99405.80;;;15.46
65765;BMP180;52915;53.718;19.946;2023-04-24T07:27:17;99409.00;;;15.30
65765;BMP180;52915;53.718;19.946;2023-04-24T07:32:21;99392.80;;;15.10
65765;BMP180;52915;53.718;19.946;2023-04-24T07:45:11;99372.80;;;15.60
65765;BMP180;52915;53.718;19.946;2023-04-24T07:50:15;99356.60;;;15.80
65765;BMP180;52915;53.718;19.946;2023-04-24T07:55:19;99349.00;;;16.36
65765;BMP180;52915;53.718;19.946;2023-04-24T08:00:47;99336.40;;;17.16
65765;BMP180;52915;53.718;19.946;2023-04-24T08:20:47;99335.80;;;19.26
65765;BMP180;52915;53.718;19.946;2023-04-24T08:41:11;99340.00;;;20.50
65765;BMP180;52915;53.718;19.946;2023-04-24T08:54:29;99323.20;;;21.20
65765;BMP180;52915;53.718;19.946;2023-04-24T08:59:55;99327.00;;;21.80
65765;BMP180;52915;53.718;19.946;2023-04-24T09:26:29;99328.40;;;21.62
65765;BMP180;52915;53.718;19.946;2023-04-24T09:31:39;99327.40;;;21.60
65765;BMP180;52915;53.718;19.946;2023-04-24T09:36:51;99317.80;;;21.80
65765;BMP180;52915;53.718;19.946;2023-04-24T09:49:25;99302.20;;;22.40
65765;BMP180;52915;53.718;19.946;2023-04-24T09:54:37;99301.60;;;22.50
65765;BMP180;52915;53.718;19.946;2023-04-24T10:00:10;99306.60;;;22.68
65765;BMP180;52915;53.718;19.946;2023-04-24T10:20:14;99293.20;;;23.10
65765;BMP180;52915;53.718;19.946;2023-04-24T10:31:38;99292.80;;;23.80
65765;BMP180;52915;53.718;19.946;2023-04-24T10:43:33;99281.40;;;24.60
65765;BMP180;52915;53.718;19.946;2023-04-24T10:56:17;99274.20;;;25.30
65765;BMP180;52915;53.718;19.946;2023-04-24T11:08:45;99268.00;;;26.10
65765;BMP180;52915;53.718;19.946;2023-04-24T11:21:11;99271.60;;;25.90
65765;BMP180;52915;53.718;19.946;2023-04-24T11:26:22;99283.20;;;25.40
65765;BMP180;52915;53.718;19.946;2023-04-24T11:31:35;99286.20;;;25.00
65765;BMP180;52915;53.718;19.946;2023-04-24T11:44:35;99285.40;;;24.10
65765;BMP180;52915;53.718;19.946;2023-04-24T11:57:07;99286.00;;;23.70
65765;BMP180;52915;53.718;19.946;2023-04-24T12:02:23;99299.20;;;23.60
65765;BMP180;52915;53.718;19.946;2023-04-24T12:14:49;99284.40;;;22.56
65765;BMP180;52915;53.718;19.946;2023-04-24T12:33:22;99256.00;;;22.30
65765;BMP180;52915;53.718;19.946;2023-04-24T12:54:01;99222.60;;;22.90
65765;BMP180;52915;53.718;19.946;2023-04-24T12:59:10;99214.40;;;23.70
65765;BMP180;52915;53.718;19.946;2023-04-24T13:04:21;99205.40;;;24.22
65765;BMP180;52915;53.718;19.946;2023-04-24T13:10:28;99194.60;;;24.60
65765;BMP180;52915;53.718;19.946;2023-04-24T13:30:55;99147.60;;;25.70
65765;BMP180;52915;53.718;19.946;2023-04-24T13:42:08;99141.00;;;25.86
65765;BMP180;52915;53.718;19.946;2023-04-24T13:47:19;99137.80;;;26.00
65765;BMP180;52915;53.718;19.946;2023-04-24T13:52:25;99148.20;;;26.30
65765;BMP180;52915;53.718;19.946;2023-04-24T13:57:35;99142.40;;;26.32
65765;BMP180;52915;53.718;19.946;2023-04-24T14:02:41;99134.40;;;26.30
65765;BMP180;52915;53.718;19.946;2023-04-24T14:14:07;99142.80;;;26.10
65765;BMP180;52915;53.718;19.946;2023-04-24T14:19:14;99146.20;;;25.60
65765;BMP180;52915;53.718;19.946;2023-04-24T14:30:58;99147.20;;;25.02
65765;BMP180;52915;53.718;19.946;2023-04-24T14:36:25;99138.80;;;24.50
65765;BMP180;52915;53.718;19.946;2023-04-24T14:55:48;99112.20;;;24.10
65765;BMP180;52915;53.718;19.946;2023-04-24T15:00:52;99095.40;;;24.98
65765;BMP180;52915;53.718;19.946;2023-04-24T15:05:57;99092.20;;;27.62
65765;BMP180;52915;53.718;19.946;2023-04-24T15:11:52;99091.20;;;29.30
65765;BMP180;52915;53.718;19.946;2023-04-24T15:16:55;99091.00;;;30.50
65765;BMP180;52915;53.718;19.946;2023-04-24T15:22:04;99092.60;;;31.00
65765;BMP180;52915;53.718;19.946;2023-04-24T15:27:16;99095.20;;;31.20
65765;BMP180;52915;53.718;19.946;2023-04-24T15:32:30;99103.60;;;31.24
65765;BMP180;52915;53.718;19.946;2023-04-24T15:37:43;99138.60;;;28.98
65765;BMP180;52915;53.718;19.946;2023-04-24T15:42:57;99156.60;;;26.18
65765;BMP180;52915;53.718;19.946;2023-04-24T15:48:00;99153.60;;;23.76
65765;BMP180;52915;53.718;19.946;2023-04-24T16:07:47;99148.20;;;20.64
65765;BMP180;52915;53.718;19.946;2023-04-24T16:13:14;99140.00;;;21.84
65765;BMP180;52915;53.718;19.946;2023-04-24T16:18:21;99142.00;;;22.88
65765;BMP180;52915;53.718;19.946;2023-04-24T16:23:25;99138.20;;;23.14
65765;BMP180;52915;53.718;19.946;2023-04-24T16:35:06;99133.60;;;23.40
65765;BMP180;52915;53.718;19.946;2023-04-24T16:40:11;99152.40;;;22.52
65765;BMP180;52915;53.718;19.946;2023-04-24T16:45:20;99153.00;;;21.40
65765;BMP180;52915;53.718;19.946;2023-04-24T16:50:42;99148.00;;;20.52
65765;BMP180;52915;53.718;19.946;2023-04-24T16:55:46;99135.40;;;20.00
65765;BMP180;52915;53.718;19.946;2023-04-24T17:00:52;99142.60;;;19.50
65765;BMP180;52915;53.718;19.946;2023-04-24T17:06:21;99144.00;;;19.20
65765;BMP180;52915;53.718;19.946;2023-04-24T17:11:40;99132.20;;;18.90
65765;BMP180;52915;53.718;19.946;2023-04-24T17:17:10;99139.40;;;18.72
65765;BMP180;52915;53.718;19.946;2023-04-24T17:22:14;99144.00;;;18.60
65765;BMP180;52915;53.718;19.946;2023-04-24T17:34:40;99142.00;;;18.40
65765;BMP180;52915;53.718;19.946;2023-04-24T17:39:51;99137.80;;;18.30
65765;BMP180;52915;53.718;19.946;2023-04-24T17:45:46;99135.60;;;18.20
65765;BMP180;52915;53.718;19.946;2023-04-24T17:51:17;99148.20;;;18.10
65765;BMP180;52915;53.718;19.946;2023-04-24T17:56:24;99146.40;;;17.94
65765;BMP180;52915;53.718;19.946;2023-04-24T18:01:29;99150.80;;;17.80
65765;BMP180;52915;53.718;19.946;2023-04-24T18:13:42;99148.20;;;17.56
65765;BMP180;52915;53.718;19.946;2023-04-24T18:18:45;99145.00;;;17.50
65765;BMP180;52915;53.718;19.946;2023-04-24T18:23:52;99157.20;;;17.36
65765;BMP180;52915;53.718;19.946;2023-04-24T18:29:04;99161.20;;;17.20
65765;BMP180;52915;53.718;19.946;2023-04-24T18:34:09;99173.20;;;17.18
65765;BMP180;52915;53.718;19.946;2023-04-24T18:39:14;99180.00;;;17.10
65765;BMP180;52915;53.718;19.946;2023-04-24T18:44:41;99191.60;;;17.00
65765;BMP180;52915;53.718;19.946;2023-04-24T18:49:45;99204.20;;;16.90
65765;BMP180;52915;53.718;19.946;2023-04-24T18:54:49;99212.40;;;16.80
65765;BMP180;52915;53.718;19.946;2023-04-24T18:59:53;99219.60;;;16.70
65765;BMP180;52915;53.718;19.946;2023-04-24T19:04:56;99222.60;;;16.60
65765;BMP180;52915;53.718;19.946;2023-04-24T19:10:00;99225.80;;;16.50
65765;BMP180;52915;53.718;19.946;2023-04-24T19:15:05;99227.80;;;16.40
65765;BMP180;52915;53.718;19.946;2023-04-24T19:20:10;99240.20;;;16.30
65765;BMP180;52915;53.718;19.946;2023-04-24T19:25:14;99241.00;;;16.20
65765;BMP180;52915;53.718;19.946;2023-04-24T19:30:18;99231.00;;;16.00
65765;BMP180;52915;53.718;19.946;2023-04-24T19:35:22;99231.80;;;15.80
65765;BMP180;52915;53.718;19.946;2023-04-24T19:40:26;99238.20;;;15.60
65765;BMP180;52915;53.718;19.946;2023-04-24T19:45:31;99231.40;;;15.50
65765;BMP180;52915;53.718;19.946;2023-04-24T19:50:35;99238.40;;;15.50
65765;BMP180;52915;53.718;19.946;2023-04-24T19:55:39;99246.00;;;15.40
65765;BMP180;52915;53.718;19.946;2023-04-24T20:00:43;99250.40;;;15.20
65765;BMP180;52915;53.718;19.946;2023-04-24T20:05:47;99242.40;;;15.00
65765;BMP180;52915;53.718;19.946;2023-04-24T20:10:51;99245.60;;;14.88
65765;BMP180;52915;53.718;19.946;2023-04-24T20:15:57;99241.00;;;14.78
65765;BMP180;52915;53.718;19.946;2023-04-24T20:35:19;99222.00;;;14.40
65765;BMP180;52915;53.718;19.946;2023-04-24T20:40:24;99205.00;;;14.30
65765;BMP180;52915;53.718;19.946;2023-04-24T20:45:31;99193.80;;;14.28
65765;BMP180;52915;53.718;19.946;2023-04-24T20:50:35;99186.80;;;14.22
65765;BMP180;52915;53.718;19.946;2023-04-24T20:55:44;99185.60;;;14.20
65765;BMP180;52915;53.718;19.946;2023-04-24T21:15:03;99165.60;;;14.10
65765;BMP180;52915;53.718;19.946;2023-04-24T21:24:42;99155.60;;;13.98
65765;BMP180;52915;53.718;19.946;2023-04-24T21:29:46;99149.00;;;13.90
65765;BMP180;52915;53.718;19.946;2023-04-24T21:34:56;99144.80;;;13.90
65765;BMP180;52915;53.718;19.946;2023-04-24T21:40:02;99140.80;;;13.80
65765;BMP180;52915;53.718;19.946;2023-04-24T21:45:09;99137.20;;;13.76
65765;BMP180;52915;53.718;19.946;2023-04-24T21:50:13;99139.00;;;13.70
65765;BMP180;52915;53.718;19.946;2023-04-24T21:55:20;99133.80;;;13.62
65765;BMP180;52915;53.718;19.946;2023-04-24T22:00:24;99122.80;;;13.60
65765;BMP180;52915;53.718;19.946;2023-04-24T22:05:34;99116.80;;;13.52
65765;BMP180;52915;53.718;19.946;2023-04-24T22:10:37;99116.80;;;13.50
65765;BMP180;52915;53.718;19.946;2023-04-24T22:28:53;99110.60;;;13.30
65765;BMP180;52915;53.718;19.946;2023-04-24T22:33:57;99101.20;;;13.30
65765;BMP180;52915;53.718;19.946;2023-04-24T22:39:27;99096.00;;;13.20
65765;BMP180;52915;53.718;19.946;2023-04-24T22:44:31;99090.80;;;13.20
65765;BMP180;52915;53.718;19.946;2023-04-24T22:49:35;99090.20;;;13.10
65765;BMP180;52915;53.718;19.946;2023-04-24T22:54:40;99088.40;;;13.10
65765;BMP180;52915;53.718;19.946;2023-04-24T23:14:26;99075.20;;;12.90
65765;BMP180;52915;53.718;19.946;2023-04-24T23:25:19;99072.20;;;12.80
65765;BMP180;52915;53.718;19.946;2023-04-24T23:30:29;99073.60;;;12.80
65765;BMP180;52915;53.718;19.946;2023-04-24T23:35:34;99068.20;;;12.70
65765;BMP180;52915;53.718;19.946;2023-04-24T23:40:38;99078.60;;;12.70
65765;BMP180;52915;53.718;19.946;2023-04-24T23:45:42;99075.60;;;12.70
65765;BMP180;52915;53.718;19.946;2023-04-24T23:50:55;99085.40;;;12.64
65765;BMP180;52915;53.718;19.946;2023-04-24T23:55:58;99084.80;;;12.60
